Time;durP1;ratioP1;P1;durP2;ratioP2;P2;SDS_P1;SDS_P2;PMS_P1;PMS_P2;Temp;Humidity;BMP_temperature;BMP_pressure;BME280_temperature;BME280_humidity;BME280_pressure;Samples;Min_cycle;Max_cycle;Signal;HPM_P1;HPM_P2
2022/01/26 00:07:54;;;;;;;89.30;30.48;;;3.40;99.90;;;;;;5081754;28;20546;-45
2022/01/26 00:10:20;;;;;;;78.30;28.60;;;3.30;99.90;;;;;;5087724;28;20481;-44
2022/01/26 00:12:46;;;;;;;86.97;31.17;;;3.40;99.90;;;;;;5082277;28;20250;-43
2022/01/26 00:15:12;;;;;;;95.15;34.08;;;3.30;99.90;;;;;;5090868;28;20093;-43
2022/01/26 00:17:38;;;;;;;94.00;32.20;;;3.30;99.90;;;;;;5080304;28;20082;-43
2022/01/26 00:22:58;;;;;;;82.15;30.83;;;3.30;99.90;;;;;;5084705;28;20050;-44
2022/01/26 00:25:38;;;;;;;97.25;34.58;;;3.30;99.90;;;;;;5081030;28;20489;-43
2022/01/26 00:38:48;;;;;;;88.25;31.50;;;3.40;99.90;;;;;;5073604;28;20028;-44
2022/01/26 00:41:23;;;;;;;81.05;29.05;;;3.40;99.90;;;;;;5072224;28;20019;-43
2022/01/26 00:43:54;;;;;;;82.65;30.20;;;3.40;99.90;;;;;;5081397;28;20480;-44
2022/01/26 00:46:21;;;;;;;83.47;30.35;;;3.40;99.90;;;;;;5089233;28;20031;-44
2022/01/26 00:48:49;;;;;;;80.18;28.80;;;3.40;99.90;;;;;;5073293;28;20036;-45
2022/01/26 00:51:16;;;;;;;75.47;26.65;;;3.40;99.90;;;;;;5089342;28;20028;-45
2022/01/26 00:53:48;;;;;;;74.15;28.38;;;3.40;99.90;;;;;;5080174;28;20017;-45
2022/01/26 00:56:16;;;;;;;63.65;25.25;;;3.50;99.90;;;;;;5088720;28;20024;-44
2022/01/26 00:58:42;;;;;;;72.32;24.50;;;3.50;99.90;;;;;;5080898;28;20167;-45
2022/01/26 01:01:07;;;;;;;62.55;24.38;;;3.50;99.90;;;;;;5079813;28;20024;-43
2022/01/26 01:03:36;;;;;;;57.85;23.42;;;3.50;99.90;;;;;;5084238;28;20027;-45
2022/01/26 01:06:11;;;;;;;53.53;21.30;;;3.50;99.90;;;;;;5081269;28;20258;-43
2022/01/26 01:08:39;;;;;;;53.17;21.42;;;3.50;99.90;;;;;;5082106;28;20552;-44
2022/01/26 01:11:04;;;;;;;45.95;19.60;;;3.50;99.90;;;;;;5079376;28;20028;-44
2022/01/26 01:13:34;;;;;;;48.47;20.02;;;3.50;99.90;;;;;;5083150;28;20062;-43
2022/01/26 01:16:00;;;;;;;45.92;17.98;;;3.50;99.90;;;;;;5078511;28;20500;-44
2022/01/26 01:31:29;;;;;;;40.55;15.10;;;3.60;99.90;;;;;;5080600;28;19910;-45
2022/01/26 01:33:55;;;;;;;36.50;16.02;;;3.60;99.90;;;;;;5089336;28;20165;-43
2022/01/26 01:36:22;;;;;;;50.38;15.52;;;3.50;99.90;;;;;;5083373;28;20444;-43
2022/01/26 01:38:47;;;;;;;32.92;13.25;;;3.50;99.90;;;;;;5076409;28;20117;-44
2022/01/26 01:41:13;;;;;;;36.50;14.48;;;3.60;99.90;;;;;;5079889;28;20119;-43
2022/01/26 01:43:39;;;;;;;39.33;15.77;;;3.50;99.90;;;;;;5083969;28;20058;-44
2022/01/26 01:46:05;;;;;;;33.20;13.80;;;3.50;99.90;;;;;;5078898;28;20814;-43
2022/01/26 01:48:32;;;;;;;32.72;15.40;;;3.50;99.90;;;;;;5088009;28;20440;-46
2022/01/26 01:51:01;;;;;;;32.65;14.25;;;3.50;99.90;;;;;;5084093;28;20032;-45
2022/01/26 01:53:40;;;;;;;32.85;14.85;;;3.50;99.90;;;;;;5081557;28;20220;-46
2022/01/26 01:56:07;;;;;;;28.67;14.32;;;3.60;99.90;;;;;;5079163;28;20020;-45
2022/01/26 01:58:33;;;;;;;27.85;13.60;;;3.60;99.90;;;;;;5079799;28;20020;-45
2022/01/26 02:00:59;;;;;;;31.20;12.68;;;3.60;99.90;;;;;;5084432;28;20416;-45
2022/01/26 02:03:25;;;;;;;32.08;14.38;;;3.60;99.90;;;;;;5081636;28;20385;-45
2022/01/26 02:05:50;;;;;;;33.22;13.05;;;3.50;99.90;;;;;;5085014;28;20033;-45
2022/01/26 02:08:16;;;;;;;28.00;12.32;;;3.60;99.90;;;;;;5084376;28;20017;-46
2022/01/26 02:10:43;;;;;;;32.33;12.88;;;3.50;99.90;;;;;;5068608;28;20035;-45
2022/01/26 02:16:19;;;;;;;28.63;12.57;;;3.50;99.90;;;;;;5058318;28;20037;-45
2022/01/26 02:51:46;;;;;;;25.55;10.25;;;3.60;99.90;;;;;;5080711;28;20035;-45
2022/01/26 02:54:35;;;;;;;26.42;12.13;;;3.60;99.90;;;;;;5080196;28;20465;-46
2022/01/26 02:57:27;;;;;;;22.50;10.75;;;3.60;99.90;;;;;;5083268;28;20029;-48
2022/01/26 03:00:16;;;;;;;23.58;11.40;;;3.60;99.90;;;;;;5079410;28;20367;-45
2022/01/26 03:02:52;;;;;;;27.50;11.32;;;3.60;99.90;;;;;;5083493;28;20263;-45
2022/01/26 03:05:20;;;;;;;23.08;9.98;;;3.60;99.90;;;;;;5067965;28;20024;-45
2022/01/26 03:07:54;;;;;;;26.25;11.55;;;3.60;99.90;;;;;;5071173;28;20027;-46
2022/01/26 03:10:32;;;;;;;28.02;12.13;;;3.50;99.90;;;;;;5083240;28;20020;-45
2022/01/26 03:13:07;;;;;;;30.92;12.10;;;3.50;99.90;;;;;;5091772;28;20020;-45
2022/01/26 03:15:42;;;;;;;29.83;12.25;;;3.50;99.90;;;;;;5079516;28;20024;-45
2022/01/26 03:20:54;;;;;;;27.10;11.45;;;3.50;99.90;;;;;;5080458;28;20028;-45
2022/01/26 03:33:54;;;;;;;33.47;12.80;;;3.50;99.90;;;;;;5082942;28;20170;-45
2022/01/26 03:36:21;;;;;;;30.25;13.85;;;3.50;99.90;;;;;;5086760;28;20443;-46
2022/01/26 03:38:58;;;;;;;29.83;13.02;;;3.50;99.90;;;;;;5078832;28;20074;-47
2022/01/26 03:42:05;;;;;;;30.75;13.45;;;3.50;99.90;;;;;;5051477;28;20617;-45
2022/01/26 03:44:16;;;;;;;40.15;15.48;;;3.50;99.90;;;;;;5074102;28;20032;-45
2022/01/26 03:46:43;;;;;;;32.45;14.07;;;3.40;99.90;;;;;;5085024;28;20028;-46
2022/01/26 03:49:10;;;;;;;34.28;15.07;;;3.50;99.90;;;;;;5089136;28;20493;-45
2022/01/26 03:51:37;;;;;;;30.75;13.00;;;3.40;99.90;;;;;;5078287;28;20017;-45
2022/01/26 03:54:04;;;;;;;35.58;14.30;;;3.40;99.90;;;;;;5089238;28;20058;-47
2022/01/26 03:56:29;;;;;;;41.45;15.18;;;3.50;99.90;;;;;;5091176;28;20056;-47
2022/01/26 03:58:55;;;;;;;32.00;13.23;;;3.40;99.90;;;;;;5087372;28;20536;-46
2022/01/26 04:01:20;;;;;;;36.70;15.25;;;3.40;99.90;;;;;;5082383;28;20048;-45
2022/01/26 04:03:46;;;;;;;35.95;14.27;;;3.30;99.90;;;;;;5089144;28;20651;-46
2022/01/26 04:06:12;;;;;;;34.05;15.05;;;3.30;99.90;;;;;;5081374;28;20043;-48
2022/01/26 04:08:40;;;;;;;40.05;16.98;;;3.40;99.90;;;;;;5087858;28;20035;-45
2022/01/26 04:13:32;;;;;;;42.70;15.95;;;3.40;99.90;;;;;;5084087;28;20047;-46
2022/01/26 04:15:59;;;;;;;39.35;16.80;;;3.40;99.90;;;;;;5081494;28;20513;-45
2022/01/26 04:18:44;;;;;;;34.08;15.43;;;3.40;99.90;;;;;;5079502;28;20008;-45
2022/01/26 04:26:12;;;;;;;37.83;16.00;;;3.40;99.90;;;;;;5064150;28;20058;-46
2022/01/26 04:28:43;;;;;;;43.08;16.10;;;3.40;99.90;;;;;;5061216;28;20036;-45
2022/01/26 04:31:09;;;;;;;38.30;15.90;;;3.40;99.90;;;;;;5073391;28;20093;-47
2022/01/26 04:33:36;;;;;;;38.58;15.93;;;3.30;99.90;;;;;;5067893;28;20077;-46
2022/01/26 04:36:05;;;;;;;34.90;15.13;;;3.40;99.90;;;;;;5069661;28;20143;-46
2022/01/26 04:38:40;;;;;;;42.22;15.30;;;3.40;99.90;;;;;;5060547;28;20493;-45
2022/01/26 04:43:55;;;;;;;39.63;17.88;;;3.40;99.90;;;;;;5060313;28;20032;-45
2022/01/26 04:46:20;;;;;;;39.03;15.27;;;3.40;99.90;;;;;;5067026;28;20111;-45
2022/01/26 04:48:46;;;;;;;37.45;16.23;;;3.40;99.90;;;;;;5058321;28;20428;-45
2022/01/26 04:51:11;;;;;;;41.22;16.50;;;3.30;99.90;;;;;;5060507;28;20028;-45
2022/01/26 04:53:38;;;;;;;40.20;16.08;;;3.30;99.90;;;;;;5070275;28;20037;-45
2022/01/26 04:56:04;;;;;;;39.08;16.33;;;3.40;99.90;;;;;;5066692;28;20035;-46
2022/01/26 04:58:29;;;;;;;36.78;15.88;;;3.40;99.90;;;;;;5067607;28;20024;-46
2022/01/26 05:00:55;;;;;;;40.60;16.15;;;3.40;99.90;;;;;;5062685;28;20025;-46
2022/01/26 05:03:20;;;;;;;41.75;16.48;;;3.40;99.90;;;;;;5080440;28;20647;-46
2022/01/26 05:05:46;;;;;;;44.33;16.45;;;3.30;99.90;;;;;;5080183;28;20037;-48
2022/01/26 05:08:11;;;;;;;44.10;17.30;;;3.30;99.90;;;;;;5079941;28;20948;-46
2022/01/26 05:10:41;;;;;;;39.22;16.02;;;3.30;99.90;;;;;;5085446;28;20042;-46
2022/01/26 05:13:08;;;;;;;37.00;15.80;;;3.30;99.90;;;;;;5081558;28;20024;-46
2022/01/26 05:15:33;;;;;;;40.88;16.40;;;3.30;99.90;;;;;;5081836;28;20024;-45
2022/01/26 05:17:59;;;;;;;36.72;15.63;;;3.30;99.90;;;;;;5069548;28;20047;-45
2022/01/26 05:20:24;;;;;;;44.90;17.02;;;3.30;99.90;;;;;;5082920;28;20008;-45
2022/01/26 05:22:50;;;;;;;38.33;16.17;;;3.30;99.90;;;;;;5074323;28;20024;-45
2022/01/26 05:25:15;;;;;;;42.38;16.90;;;3.30;99.90;;;;;;5085340;28;20032;-44
2022/01/26 05:27:41;;;;;;;41.53;17.25;;;3.30;99.90;;;;;;5081947;28;20024;-45
2022/01/26 05:30:08;;;;;;;39.97;15.77;;;3.30;99.90;;;;;;5076658;28;20074;-45
2022/01/26 05:32:34;;;;;;;37.25;16.42;;;3.30;99.90;;;;;;5082510;28;20490;-44
2022/01/26 05:34:59;;;;;;;42.35;16.95;;;3.30;99.90;;;;;;5080633;28;20070;-45
2022/01/26 05:37:25;;;;;;;40.05;15.25;;;3.30;99.90;;;;;;5076890;28;20039;-45
2022/01/26 05:39:51;;;;;;;35.63;14.30;;;3.30;99.90;;;;;;5080516;28;20048;-45
2022/01/26 05:42:17;;;;;;;38.20;16.60;;;3.30;99.90;;;;;;5086188;28;20024;-46
2022/01/26 05:44:44;;;;;;;45.92;16.27;;;3.30;99.90;;;;;;5080990;28;20029;-46
2022/01/26 05:47:15;;;;;;;39.17;15.70;;;3.30;99.90;;;;;;5079467;28;20078;-45
2022/01/26 05:49:41;;;;;;;36.50;15.18;;;3.20;99.90;;;;;;5074689;28;20028;-45
2022/01/26 05:52:06;;;;;;;38.55;15.85;;;3.10;99.90;;;;;;5065212;28;20028;-45
2022/01/26 05:54:32;;;;;;;39.90;15.35;;;3.10;99.90;;;;;;5071838;28;20032;-45
2022/01/26 05:56:57;;;;;;;36.13;15.60;;;3.10;99.90;;;;;;5080619;28;20501;-45
2022/01/26 05:59:23;;;;;;;38.05;15.50;;;3.10;99.90;;;;;;5071282;28;20031;-45
2022/01/26 06:01:49;;;;;;;40.53;16.45;;;3.10;99.90;;;;;;5069309;28;20359;-45
2022/01/26 06:04:16;;;;;;;42.80;15.90;;;3.00;99.90;;;;;;5078324;28;20107;-46
2022/01/26 06:06:41;;;;;;;39.22;15.13;;;3.10;99.90;;;;;;5070011;28;20035;-45
2022/01/26 06:09:06;;;;;;;49.30;15.93;;;3.00;99.90;;;;;;5072805;28;20020;-45
2022/01/26 06:11:32;;;;;;;40.03;16.50;;;3.00;99.90;;;;;;5078137;28;20024;-44
2022/01/26 06:13:58;;;;;;;36.80;14.95;;;3.00;99.90;;;;;;5072544;28;20043;-44
2022/01/26 06:16:23;;;;;;;39.83;15.07;;;3.00;99.90;;;;;;5065169;28;20025;-45
2022/01/26 06:18:49;;;;;;;44.53;15.70;;;3.00;99.90;;;;;;5068952;28;20028;-45
2022/01/26 06:21:14;;;;;;;35.95;14.50;;;3.10;99.90;;;;;;5068714;28;20513;-45
2022/01/26 06:23:40;;;;;;;40.70;15.82;;;3.10;99.90;;;;;;5079014;28;20024;-44
2022/01/26 06:26:07;;;;;;;42.03;16.88;;;3.10;99.90;;;;;;5075702;28;20521;-46
2022/01/26 06:28:33;;;;;;;37.80;15.70;;;3.10;99.90;;;;;;5075192;28;20071;-45
2022/01/26 06:31:02;;;;;;;38.25;15.52;;;3.00;99.90;;;;;;5071602;28;20032;-47
2022/01/26 06:33:28;;;;;;;39.80;15.32;;;3.00;99.90;;;;;;5069999;28;20110;-49
2022/01/26 06:35:56;;;;;;;42.53;16.98;;;3.00;99.90;;;;;;5065968;28;20150;-45
2022/01/26 06:38:24;;;;;;;40.20;16.25;;;3.00;99.90;;;;;;5058722;28;20425;-46
2022/01/26 06:40:50;;;;;;;39.42;15.43;;;3.00;99.90;;;;;;5075866;28;20016;-46
2022/01/26 06:43:16;;;;;;;41.45;16.40;;;3.00;99.90;;;;;;5070582;28;20537;-46
2022/01/26 06:45:48;;;;;;;40.05;16.58;;;3.00;99.90;;;;;;5072647;28;20040;-46
2022/01/26 06:50:59;;;;;;;43.70;16.55;;;3.00;99.90;;;;;;5089516;28;20061;-46
2022/01/26 06:53:24;;;;;;;36.05;16.60;;;2.90;99.90;;;;;;5078751;28;20532;-45
2022/01/26 06:55:50;;;;;;;39.78;15.10;;;3.00;99.90;;;;;;5071914;28;20028;-46
2022/01/26 06:58:16;;;;;;;40.90;15.82;;;2.90;99.90;;;;;;5078382;28;20040;-45
2022/01/26 07:00:41;;;;;;;38.70;15.60;;;2.90;99.90;;;;;;5079507;28;20020;-45
2022/01/26 07:03:07;;;;;;;39.28;15.98;;;2.90;99.90;;;;;;5082104;28;20643;-46
2022/01/26 07:05:32;;;;;;;40.35;16.48;;;2.90;99.90;;;;;;5092167;28;20089;-46
2022/01/26 07:07:58;;;;;;;39.55;15.60;;;2.90;99.90;;;;;;5076590;28;20027;-45
2022/01/26 07:10:24;;;;;;;41.70;15.13;;;2.90;99.90;;;;;;5079501;28;20082;-46
2022/01/26 07:12:49;;;;;;;37.72;14.98;;;2.90;99.90;;;;;;5068062;28;20020;-46
2022/01/26 07:23:27;;;;;;;42.92;16.17;;;2.90;99.90;;;;;;5078317;28;20041;-45
2022/01/26 07:25:52;;;;;;;41.92;16.95;;;2.90;99.90;;;;;;5075036;28;20375;-46
2022/01/26 07:28:18;;;;;;;33.92;13.60;;;2.90;99.90;;;;;;5062496;28;20048;-45
2022/01/26 07:30:43;;;;;;;42.97;16.33;;;2.90;99.90;;;;;;5071657;28;20466;-45
2022/01/26 07:33:09;;;;;;;41.55;15.27;;;2.90;99.90;;;;;;5078402;28;20032;-45
2022/01/26 07:35:35;;;;;;;42.35;15.95;;;2.90;99.90;;;;;;5070161;28;20060;-47
2022/01/26 07:38:03;;;;;;;47.67;16.48;;;2.90;99.90;;;;;;5072752;28;20024;-45
2022/01/26 07:40:29;;;;;;;44.40;15.82;;;2.80;99.90;;;;;;5075247;28;20048;-45
2022/01/26 07:42:55;;;;;;;40.08;16.20;;;2.90;99.90;;;;;;5081248;28;20035;-45
2022/01/26 07:45:20;;;;;;;47.75;16.67;;;2.90;99.90;;;;;;5075184;28;20029;-45
2022/01/26 07:47:47;;;;;;;42.75;15.75;;;2.80;99.90;;;;;;5078896;28;20029;-44
2022/01/26 07:50:15;;;;;;;47.75;17.80;;;2.70;99.90;;;;;;5067698;28;20064;-45
2022/01/26 07:52:42;;;;;;;37.70;14.68;;;2.70;99.90;;;;;;5077800;28;20032;-45
2022/01/26 07:55:11;;;;;;;42.40;16.73;;;2.80;99.90;;;;;;5078983;28;20020;-44
2022/01/26 07:57:36;;;;;;;40.05;16.05;;;2.80;99.90;;;;;;5083119;28;20474;-45
2022/01/26 08:00:05;;;;;;;41.58;16.42;;;2.80;99.90;;;;;;5073381;28;20225;-44
2022/01/26 08:02:30;;;;;;;42.17;16.85;;;2.80;99.90;;;;;;5070402;28;20413;-44
2022/01/26 08:04:57;;;;;;;44.53;18.50;;;2.80;99.90;;;;;;5071068;28;20028;-44
2022/01/26 08:07:22;;;;;;;59.10;22.15;;;2.80;99.90;;;;;;5077688;28;20024;-45
2022/01/26 08:09:48;;;;;;;58.55;21.83;;;2.90;99.90;;;;;;5066878;28;20406;-46
2022/01/26 08:12:15;;;;;;;46.17;20.00;;;2.90;99.90;;;;;;5075351;28;20028;-44
2022/01/26 08:14:42;;;;;;;50.20;19.00;;;2.90;99.90;;;;;;5072450;28;20089;-47
2022/01/26 08:17:09;;;;;;;53.63;21.13;;;2.90;99.90;;;;;;5080146;28;20432;-45
2022/01/26 08:19:35;;;;;;;55.63;21.73;;;2.90;99.90;;;;;;5075528;28;20021;-46
2022/01/26 08:22:02;;;;;;;56.95;21.63;;;2.90;99.90;;;;;;5084064;28;20028;-45
2022/01/26 08:24:31;;;;;;;62.05;24.20;;;2.90;99.90;;;;;;5083620;28;20381;-45
2022/01/26 08:27:05;;;;;;;66.70;27.33;;;3.00;99.90;;;;;;5090412;28;20519;-45
2022/01/26 08:29:38;;;;;;;65.90;26.08;;;2.90;99.90;;;;;;5064009;28;20596;-45
2022/01/26 08:32:04;;;;;;;72.38;28.73;;;2.90;99.90;;;;;;5074491;28;20040;-45
2022/01/26 08:34:29;;;;;;;78.72;31.05;;;3.00;99.90;;;;;;5075285;28;20489;-45
2022/01/26 08:36:55;;;;;;;76.35;29.20;;;3.00;99.90;;;;;;5070818;28;20056;-46
2022/01/26 08:39:20;;;;;;;83.72;30.80;;;2.90;99.90;;;;;;5085644;28;20034;-44
2022/01/26 08:41:46;;;;;;;86.40;31.95;;;3.00;99.90;;;;;;5069734;28;20047;-45
2022/01/26 08:44:12;;;;;;;79.68;31.75;;;2.90;99.90;;;;;;5085223;28;20032;-47
2022/01/26 08:46:38;;;;;;;91.20;33.20;;;2.90;99.90;;;;;;5077817;28;20070;-46
2022/01/26 08:49:04;;;;;;;82.60;30.13;;;2.90;99.90;;;;;;5061581;28;20078;-48
2022/01/26 08:51:30;;;;;;;85.85;31.92;;;2.80;99.90;;;;;;5076789;28;20033;-45
2022/01/26 08:53:55;;;;;;;90.20;33.58;;;2.90;99.90;;;;;;5065748;28;20028;-46
2022/01/26 08:56:21;;;;;;;86.75;31.80;;;2.90;99.90;;;;;;5074719;28;20016;-45
2022/01/26 08:58:46;;;;;;;90.20;30.40;;;2.80;99.90;;;;;;5083177;28;20473;-45
2022/01/26 09:01:12;;;;;;;103.93;33.40;;;2.80;99.90;;;;;;5078239;28;20032;-45
2022/01/26 09:03:41;;;;;;;96.18;33.75;;;2.80;99.90;;;;;;5085426;28;20032;-45
2022/01/26 09:06:07;;;;;;;92.30;32.55;;;2.70;99.90;;;;;;5080747;28;20032;-45
2022/01/26 09:08:34;;;;;;;93.50;31.67;;;2.70;99.90;;;;;;5086119;28;20032;-45
2022/01/26 09:11:01;;;;;;;101.25;33.05;;;2.70;99.90;;;;;;5080439;28;20485;-44
2022/01/26 09:13:33;;;;;;;105.85;30.60;;;2.60;99.90;;;;;;5068321;28;20111;-44
2022/01/26 09:16:00;;;;;;;101.63;29.05;;;2.60;99.90;;;;;;5077819;28;20498;-44
2022/01/26 09:18:46;;;;;;;108.45;33.35;;;2.60;99.90;;;;;;5077354;28;20024;-44
2022/01/26 09:21:12;;;;;;;103.45;35.53;;;2.60;99.90;;;;;;5079687;28;20028;-44
2022/01/26 09:23:37;;;;;;;106.00;31.98;;;2.60;99.90;;;;;;5078599;28;20029;-45
2022/01/26 09:26:04;;;;;;;98.47;31.25;;;2.60;99.90;;;;;;5069906;28;20043;-44
2022/01/26 09:28:30;;;;;;;105.25;34.53;;;2.60;99.90;;;;;;5077992;28;20065;-44
2022/01/26 09:30:55;;;;;;;109.55;33.70;;;2.70;99.90;;;;;;5086812;28;20369;-45
2022/01/26 09:33:21;;;;;;;104.07;36.10;;;2.60;99.90;;;;;;5076707;28;20051;-45
2022/01/26 09:35:47;;;;;;;103.32;32.35;;;2.60;99.90;;;;;;5077922;28;20042;-44
2022/01/26 09:38:13;;;;;;;108.15;33.20;;;2.60;99.90;;;;;;5073002;28;20061;-44
2022/01/26 09:40:38;;;;;;;100.43;33.03;;;2.60;99.90;;;;;;5071657;28;20033;-45
2022/01/26 09:43:04;;;;;;;112.22;33.05;;;2.60;99.90;;;;;;5072037;28;20029;-44
2022/01/26 09:45:34;;;;;;;113.22;34.53;;;2.60;99.90;;;;;;5081584;28;20032;-44
2022/01/26 09:48:00;;;;;;;108.85;32.90;;;2.60;99.90;;;;;;5082330;28;20030;-46
2022/01/26 09:50:26;;;;;;;115.07;34.25;;;2.60;99.90;;;;;;5057345;28;20087;-44
2022/01/26 09:52:54;;;;;;;114.13;35.17;;;2.60;99.90;;;;;;5068256;28;20036;-43
2022/01/26 09:55:22;;;;;;;109.47;34.77;;;2.60;99.90;;;;;;5066783;28;20045;-44
2022/01/26 09:57:47;;;;;;;102.88;34.40;;;2.70;99.90;;;;;;5072696;28;20107;-44
2022/01/26 10:00:15;;;;;;;109.97;34.78;;;2.60;99.90;;;;;;5082703;28;20108;-45
2022/01/26 10:02:43;;;;;;;115.35;34.20;;;2.70;99.90;;;;;;5085108;28;20099;-44
2022/01/26 10:05:11;;;;;;;124.03;36.22;;;2.70;99.90;;;;;;5084635;28;20665;-44
2022/01/26 10:08:01;;;;;;;123.60;37.95;;;2.60;99.90;;;;;;5075036;28;20555;-44
2022/01/26 10:16:06;;;;;;;110.50;34.35;;;2.60;99.90;;;;;;5077478;28;20027;-45
2022/01/26 10:18:33;;;;;;;106.95;33.63;;;2.60;99.90;;;;;;5049478;28;20028;-44
2022/01/26 10:21:01;;;;;;;116.13;37.08;;;2.60;99.90;;;;;;5067154;28;20025;-46
2022/01/26 10:23:29;;;;;;;117.88;35.42;;;2.60;99.90;;;;;;5071446;28;20012;-47
2022/01/26 10:26:03;;;;;;;118.95;35.38;;;2.60;99.90;;;;;;5073048;28;20025;-45
2022/01/26 10:28:49;;;;;;;108.53;32.75;;;2.60;99.90;;;;;;5047346;28;20502;-44
2022/01/26 10:31:23;;;;;;;111.05;34.80;;;2.60;99.90;;;;;;5059900;28;20023;-45
2022/01/26 10:33:56;;;;;;;122.18;34.92;;;2.60;99.90;;;;;;5069209;28;20021;-44
2022/01/26 10:36:22;;;;;;;116.68;34.95;;;2.60;99.90;;;;;;5085000;28;20021;-44
2022/01/26 10:39:09;;;;;;;112.03;32.63;;;2.50;99.90;;;;;;5068555;28;20047;-45
2022/01/26 10:41:36;;;;;;;110.07;36.20;;;2.50;99.90;;;;;;5048112;28;20024;-44
2022/01/26 10:44:02;;;;;;;110.68;33.85;;;2.50;99.90;;;;;;5052941;28;20021;-44
2022/01/26 10:46:32;;;;;;;114.82;34.78;;;2.50;99.90;;;;;;5075503;28;20024;-44
2022/01/26 10:51:53;;;;;;;115.80;33.67;;;2.50;99.90;;;;;;5075348;28;20094;-45
2022/01/26 10:54:37;;;;;;;121.15;34.67;;;2.50;99.90;;;;;;5054428;28;20112;-44
2022/01/26 10:57:05;;;;;;;115.78;35.63;;;2.50;99.90;;;;;;5075560;28;20028;-44
2022/01/26 10:59:33;;;;;;;128.38;36.92;;;2.50;99.90;;;;;;5076033;28;20151;-44
2022/01/26 11:02:02;;;;;;;131.15;39.58;;;2.50;99.90;;;;;;5078017;28;20473;-45
2022/01/26 11:04:27;;;;;;;123.40;37.70;;;2.50;99.90;;;;;;5080969;28;20028;-44
2022/01/26 11:06:53;;;;;;;138.88;39.50;;;2.50;99.90;;;;;;5080074;28;20029;-44
2022/01/26 11:09:23;;;;;;;130.23;37.80;;;2.40;99.90;;;;;;5075080;28;20029;-45
2022/01/26 11:11:59;;;;;;;142.20;41.30;;;2.50;99.90;;;;;;5076117;28;20214;-44
2022/01/26 11:14:25;;;;;;;140.55;41.75;;;2.50;99.90;;;;;;5070052;28;20029;-45
2022/01/26 11:16:54;;;;;;;130.23;37.33;;;2.40;99.90;;;;;;5084636;28;20104;-45
2022/01/26 11:19:21;;;;;;;134.23;39.75;;;2.40;99.90;;;;;;5087615;28;20037;-45
2022/01/26 11:21:47;;;;;;;146.30;41.67;;;2.40;99.90;;;;;;5086528;28;20020;-44
2022/01/26 11:24:19;;;;;;;144.20;40.70;;;2.50;99.90;;;;;;5082986;28;20383;-45
2022/01/26 11:26:47;;;;;;;150.23;41.33;;;2.40;99.90;;;;;;5075458;28;20044;-46
2022/01/26 11:29:26;;;;;;;134.73;39.55;;;2.40;99.90;;;;;;5070390;28;20059;-45
2022/01/26 11:32:17;;;;;;;155.02;46.05;;;2.40;99.90;;;;;;5072673;28;20031;-45
2022/01/26 11:34:43;;;;;;;147.13;41.67;;;2.40;99.90;;;;;;5087050;28;20110;-45
2022/01/26 11:37:15;;;;;;;133.65;39.67;;;2.40;99.90;;;;;;5072479;28;20444;-45
2022/01/26 11:45:14;;;;;;;146.20;41.75;;;2.40;99.90;;;;;;5082541;28;20039;-43
2022/01/26 11:47:44;;;;;;;136.85;42.30;;;2.50;99.90;;;;;;5073771;28;20025;-45
2022/01/26 11:50:19;;;;;;;132.98;41.63;;;2.50;99.90;;;;;;5080756;28;20443;-45
2022/01/26 11:52:57;;;;;;;141.05;43.63;;;2.50;99.90;;;;;;5050858;28;20358;-44
2022/01/26 11:55:33;;;;;;;134.40;40.80;;;2.50;99.90;;;;;;5055614;28;20049;-45
2022/01/26 11:58:13;;;;;;;141.88;40.72;;;2.60;99.90;;;;;;5076840;28;20099;-45
2022/01/26 12:00:47;;;;;;;136.45;41.38;;;2.60;99.90;;;;;;5075907;28;20033;-45
2022/01/26 12:03:47;;;;;;;142.27;43.83;;;2.60;99.90;;;;;;5080498;28;20031;-45
2022/01/26 12:06:20;;;;;;;149.95;43.95;;;2.60;99.90;;;;;;5073950;28;20039;-44
2022/01/26 12:08:46;;;;;;;142.20;42.38;;;2.60;99.90;;;;;;5070520;28;20025;-45
2022/01/26 12:11:14;;;;;;;137.77;42.25;;;2.60;99.90;;;;;;5061649;28;20044;-45
2022/01/26 12:13:41;;;;;;;140.18;42.13;;;2.70;99.90;;;;;;5061859;28;20512;-44
2022/01/26 12:16:14;;;;;;;148.55;45.00;;;2.80;99.90;;;;;;5066693;28;20698;-45
2022/01/26 12:35:50;;;;;;;140.60;42.10;;;2.90;99.90;;;;;;5056066;28;20027;-45
2022/01/26 12:38:29;;;;;;;137.10;44.13;;;2.80;99.90;;;;;;5063866;28;20036;-45
2022/01/26 12:43:47;;;;;;;139.15;42.40;;;2.80;99.90;;;;;;5058544;28;20024;-46
2022/01/26 12:46:14;;;;;;;144.95;44.65;;;2.80;99.90;;;;;;5064918;28;20032;-45
2022/01/26 12:48:42;;;;;;;134.18;43.33;;;2.80;99.90;;;;;;5064098;28;20043;-44
2022/01/26 12:51:09;;;;;;;141.35;43.88;;;2.80;99.90;;;;;;5059427;28;20094;-45
2022/01/26 12:53:36;;;;;;;130.57;43.65;;;2.70;99.90;;;;;;5066595;28;20550;-45
2022/01/26 12:56:07;;;;;;;142.70;42.45;;;2.70;99.90;;;;;;5058895;28;20025;-45
2022/01/26 12:58:35;;;;;;;123.57;41.40;;;2.70;99.90;;;;;;5066727;28;20013;-45
2022/01/26 13:01:11;;;;;;;146.35;42.53;;;2.80;99.90;;;;;;5061985;28;20494;-45
2022/01/26 13:03:39;;;;;;;119.32;39.42;;;2.80;99.90;;;;;;5058219;28;20024;-44
2022/01/26 13:06:14;;;;;;;138.57;43.85;;;2.80;99.90;;;;;;5064177;28;20024;-45
2022/01/26 13:09:00;;;;;;;137.02;40.92;;;2.80;99.90;;;;;;5062276;28;20073;-44
2022/01/26 13:11:31;;;;;;;131.55;41.42;;;2.80;99.90;;;;;;5061452;28;20044;-44
2022/01/26 13:16:42;;;;;;;134.70;41.75;;;2.80;99.90;;;;;;5064142;28;20129;-45
2022/01/26 13:27:07;;;;;;;135.57;43.05;;;2.80;99.90;;;;;;5056972;28;20051;-45
2022/01/26 13:30:45;;;;;;;137.73;44.28;;;2.80;99.90;;;;;;5063958;28;20029;-47
2022/01/26 13:32:55;;;;;;;138.63;43.75;;;2.80;99.90;;;;;;5056274;28;20032;-45
2022/01/26 13:36:07;;;;;;;141.07;46.58;;;2.70;99.90;;;;;;5069447;28;20508;-46
2022/01/26 13:38:28;;;;;;;137.88;47.10;;;2.70;99.90;;;;;;5064713;28;20079;-45
2022/01/26 13:41:03;;;;;;;150.43;48.28;;;2.80;99.90;;;;;;5062196;28;20040;-45
2022/01/26 14:01:52;;;;;;;168.00;49.50;;;2.90;99.90;;;;;;5061101;28;20071;-45
2022/01/26 14:04:18;;;;;;;147.63;48.88;;;2.90;99.90;;;;;;5063221;28;20471;-45
2022/01/26 14:06:47;;;;;;;149.50;49.20;;;2.90;99.90;;;;;;5065890;28;20021;-45
2022/01/26 14:09:13;;;;;;;144.20;48.45;;;2.90;99.90;;;;;;5060311;28;20096;-45
2022/01/26 14:11:39;;;;;;;157.25;48.38;;;3.00;99.90;;;;;;5066750;28;20034;-45
2022/01/26 14:14:08;;;;;;;155.68;48.63;;;3.00;99.90;;;;;;5068768;28;20017;-46
2022/01/26 14:16:38;;;;;;;167.13;53.05;;;2.90;99.90;;;;;;5071009;28;20476;-45
2022/01/26 14:19:27;;;;;;;;;;;2.90;99.90;;;;;;5068852;28;20103;-46
2022/01/26 14:22:27;;;;;;;160.85;49.67;;;2.90;99.90;;;;;;5064723;28;19999;-47
2022/01/26 14:27:12;;;;;;;163.93;51.00;;;2.90;99.90;;;;;;5061169;28;20055;-45
2022/01/26 14:29:54;;;;;;;175.50;52.03;;;2.90;99.90;;;;;;5062867;28;20052;-48
2022/01/26 14:40:58;;;;;;;166.52;51.85;;;2.90;99.90;;;;;;5062391;28;20047;-45
2022/01/26 14:54:32;;;;;;;171.90;52.60;;;2.90;99.90;;;;;;5063450;28;20389;-47
2022/01/26 15:00:14;;;;;;;165.30;53.97;;;2.90;99.90;;;;;;5070386;28;20560;-45
2022/01/26 15:08:44;;;;;;;175.05;52.65;;;2.90;99.90;;;;;;5068269;28;20059;-46
2022/01/26 15:50:59;;;;;;;149.82;49.30;;;2.90;99.90;;;;;;5077751;28;20047;-47
2022/01/26 15:59:05;;;;;;;148.57;45.53;;;2.80;99.90;;;;;;5068610;28;20032;-45
2022/01/26 16:04:31;;;;;;;155.55;46.83;;;2.90;99.90;;;;;;5073620;28;20476;-44
2022/01/26 16:21:08;;;;;;;149.45;48.28;;;2.90;99.90;;;;;;5073554;28;20038;-44
2022/01/26 16:35:19;;;;;;;144.45;46.35;;;2.90;99.90;;;;;;5048434;28;20116;-45
2022/01/26 16:37:41;;;;;;;138.15;46.00;;;3.00;99.90;;;;;;5080362;28;20042;-44
2022/01/26 17:02:30;;;;;;;132.20;43.60;;;2.90;99.90;;;;;;5053817;28;20036;-43
2022/01/26 17:24:18;;;;;;;127.68;40.67;;;3.00;99.90;;;;;;5081431;28;20080;-44
2022/01/26 18:49:34;;;;;;;111.97;34.42;;;2.90;99.90;;;;;;5083903;28;20047;-50
2022/01/26 18:52:01;;;;;;;103.82;33.38;;;2.90;99.90;;;;;;5090144;28;20113;-46
2022/01/26 18:54:29;;;;;;;104.47;34.60;;;2.90;99.90;;;;;;5087800;28;20517;-46
2022/01/26 18:56:58;;;;;;;121.45;37.95;;;3.00;99.90;;;;;;5083951;28;20024;-46
2022/01/26 18:59:24;;;;;;;114.70;36.15;;;2.90;99.90;;;;;;5091780;28;20138;-46
2022/01/26 19:01:52;;;;;;;107.78;34.13;;;2.90;99.90;;;;;;5083683;28;20024;-48
2022/01/26 19:04:25;;;;;;;103.65;34.47;;;2.90;99.90;;;;;;5050883;28;20116;-46
2022/01/26 19:06:52;;;;;;;116.40;35.53;;;2.90;99.90;;;;;;5067622;28;20024;-45
2022/01/26 19:09:22;;;;;;;106.28;34.45;;;2.90;99.90;;;;;;5066436;28;20024;-48
2022/01/26 19:11:48;;;;;;;100.60;33.78;;;2.90;99.90;;;;;;5075707;28;20263;-45
2022/01/26 19:14:14;;;;;;;111.60;34.63;;;2.90;99.90;;;;;;5082757;28;20054;-46
2022/01/26 19:16:52;;;;;;;101.05;33.08;;;2.90;99.90;;;;;;5090643;28;20062;-46
2022/01/26 19:19:35;;;;;;;104.18;32.50;;;2.90;99.90;;;;;;5079255;28;20009;-46